Time;durP1;ratioP1;P1;durP2;ratioP2;P2;SDS_P1;SDS_P2;PMS_P1;PMS_P2;Temp;Humidity;BMP_temperature;BMP_pressure;BME280_temperature;BME280_humidity;BME280_pressure;Samples;Min_cycle;Max_cycle;Signal;HPM_P1;HPM_P2
2022/12/15 00:40:05;;;;;;;36.58;21.50;;;-2.00;99.90;;;;;;5032930;28;20036;-51
2022/12/15 00:42:31;;;;;;;32.83;19.50;;;-1.90;99.90;;;;;;5030150;28;20370;-52
2022/12/15 00:44:57;;;;;;;35.58;19.25;;;-1.90;99.90;;;;;;5032505;28;20037;-50
2022/12/15 00:47:23;;;;;;;36.60;20.23;;;-1.90;99.90;;;;;;5032097;28;20033;-48
2022/12/15 01:20:19;;;;;;;40.00;21.00;;;-2.30;99.90;;;;;;5031869;28;20032;-49
2022/12/15 01:22:50;;;;;;;35.53;19.38;;;-2.40;99.90;;;;;;5029433;28;20032;-45
2022/12/15 01:25:17;;;;;;;52.00;21.08;;;-2.40;99.90;;;;;;5031781;28;20028;-51
2022/12/15 01:27:44;;;;;;;39.03;22.13;;;-2.40;99.90;;;;;;5031335;28;20021;-49
2022/12/15 01:30:11;;;;;;;43.83;22.42;;;-2.40;99.90;;;;;;5031479;28;20052;-50
2022/12/15 01:32:37;;;;;;;38.97;20.77;;;-2.40;99.90;;;;;;5030688;28;20382;-53
2022/12/15 01:35:04;;;;;;;44.20;23.30;;;-2.50;99.90;;;;;;5031892;28;20033;-49
2022/12/15 01:37:29;;;;;;;37.17;21.95;;;-2.50;99.90;;;;;;5031535;28;20032;-48
2022/12/15 01:42:39;;;;;;;39.95;23.30;;;-2.50;99.90;;;;;;5030723;28;20404;-45
2022/12/15 01:45:42;;;;;;;34.72;20.92;;;-2.50;99.90;;;;;;5031018;28;20022;-49
2022/12/15 01:48:12;;;;;;;44.45;22.52;;;-2.50;99.90;;;;;;5031279;28;20021;-50
2022/12/15 01:50:49;;;;;;;40.90;21.60;;;-2.50;99.90;;;;;;5031490;28;20017;-49
2022/12/15 01:53:16;;;;;;;35.33;21.38;;;-2.50;99.90;;;;;;5030444;28;20029;-48
2022/12/15 01:55:44;;;;;;;41.75;23.27;;;-2.40;99.90;;;;;;5031522;28;20037;-46
2022/12/15 01:58:13;;;;;;;36.47;20.85;;;-2.40;99.90;;;;;;5031165;28;20112;-46
2022/12/15 02:00:38;;;;;;;37.47;21.58;;;-2.40;99.90;;;;;;5030056;28;20123;-47
2022/12/15 02:03:05;;;;;;;35.90;21.30;;;-2.30;99.90;;;;;;5012935;28;20424;-49
2022/12/15 02:05:32;;;;;;;37.10;19.90;;;-2.30;99.90;;;;;;5029993;28;20101;-46
2022/12/15 02:08:00;;;;;;;34.15;21.75;;;-2.30;99.90;;;;;;5030271;28;20030;-47
2022/12/15 02:10:33;;;;;;;39.53;21.63;;;-2.30;99.90;;;;;;5031888;28;20026;-48
2022/12/15 02:13:20;;;;;;;42.00;20.83;;;-2.30;99.90;;;;;;5012849;28;20032;-49
2022/12/15 02:16:09;;;;;;;38.88;22.17;;;-2.30;99.90;;;;;;5031281;28;20029;-47
2022/12/15 02:18:49;;;;;;;34.97;21.25;;;-2.30;99.90;;;;;;5013286;28;20421;-48
2022/12/15 02:21:23;;;;;;;40.05;21.42;;;-2.30;99.90;;;;;;5031103;28;20033;-46
2022/12/15 02:24:09;;;;;;;36.78;20.98;;;-2.40;99.90;;;;;;5030297;28;20025;-45
2022/12/15 02:26:53;;;;;;;36.15;22.20;;;-2.50;99.90;;;;;;5030914;28;20543;-48
2022/12/15 02:29:49;;;;;;;50.53;23.02;;;-2.60;99.90;;;;;;5031285;28;20465;-48
2022/12/15 02:32:23;;;;;;;35.85;21.25;;;-2.70;99.90;;;;;;5030236;28;20423;-51
2022/12/15 02:35:04;;;;;;;38.30;20.05;;;-2.70;99.90;;;;;;5030793;28;20029;-47
2022/12/15 02:37:31;;;;;;;36.55;19.42;;;-2.70;99.90;;;;;;5030826;28;20111;-52
2022/12/15 02:39:57;;;;;;;36.83;21.30;;;-2.70;99.90;;;;;;5030908;28;20037;-50
2022/12/15 02:42:25;;;;;;;35.45;21.10;;;-2.90;99.90;;;;;;5029935;28;20030;-49
2022/12/15 02:44:56;;;;;;;31.58;20.10;;;-2.90;99.90;;;;;;5030960;28;20345;-48
2022/12/15 02:47:26;;;;;;;37.53;21.35;;;-2.90;99.90;;;;;;5030594;28;20029;-46
2022/12/15 02:50:22;;;;;;;37.72;21.00;;;-2.90;99.90;;;;;;5030934;28;20548;-46
2022/12/15 02:53:06;;;;;;;37.47;19.95;;;-2.90;99.90;;;;;;5029998;28;20458;-48
2022/12/15 02:55:50;;;;;;;37.17;20.08;;;-3.00;99.90;;;;;;5013064;28;20033;-46
2022/12/15 02:58:43;;;;;;;39.67;21.80;;;-3.00;99.90;;;;;;5015047;28;20511;-51
2022/12/15 03:01:24;;;;;;;37.85;22.02;;;-3.10;99.90;;;;;;5034283;28;20026;-50
2022/12/15 03:03:50;;;;;;;46.55;22.20;;;-3.10;99.90;;;;;;5033238;28;20041;-51
2022/12/15 03:06:17;;;;;;;36.33;20.50;;;-3.20;99.90;;;;;;5033854;28;20381;-50
2022/12/15 03:08:42;;;;;;;38.47;21.08;;;-3.30;99.90;;;;;;5034123;28;20035;-48
2022/12/15 03:11:08;;;;;;;40.08;22.40;;;-3.30;99.90;;;;;;5034323;28;20551;-49
2022/12/15 03:13:33;;;;;;;36.60;20.83;;;-3.40;99.90;;;;;;5033299;28;20037;-47
2022/12/15 03:15:59;;;;;;;38.97;21.23;;;-3.50;99.90;;;;;;5034045;28;20033;-50
2022/12/15 03:18:25;;;;;;;35.35;21.17;;;-3.50;99.90;;;;;;5033518;28;20022;-45
2022/12/15 03:20:52;;;;;;;37.40;20.35;;;-3.60;99.90;;;;;;5034133;28;20022;-49
2022/12/15 03:23:18;;;;;;;38.08;20.80;;;-3.60;99.90;;;;;;5032974;28;20022;-47
2022/12/15 03:25:45;;;;;;;39.78;23.08;;;-3.70;99.90;;;;;;5033871;28;20508;-47
2022/12/15 03:28:11;;;;;;;38.17;22.08;;;-3.70;99.90;;;;;;5033717;28;20121;-46
2022/12/15 03:30:36;;;;;;;36.15;20.55;;;-3.70;99.90;;;;;;5033732;28;20385;-45
2022/12/15 03:33:02;;;;;;;39.53;22.73;;;-3.70;99.90;;;;;;5032868;28;20033;-46
2022/12/15 03:35:28;;;;;;;33.55;20.08;;;-3.80;99.90;;;;;;5033794;28;20072;-48
2022/12/15 03:37:54;;;;;;;36.35;20.42;;;-3.80;99.90;;;;;;5033396;28;20029;-49
2022/12/15 03:40:19;;;;;;;42.22;20.65;;;-3.80;99.90;;;;;;5032479;28;20397;-49
2022/12/15 03:42:47;;;;;;;34.90;19.90;;;-3.80;99.90;;;;;;5032648;28;20052;-46
2022/12/15 03:45:24;;;;;;;41.25;21.45;;;-3.80;99.90;;;;;;5033742;28;20018;-45
2022/12/15 03:47:50;;;;;;;37.40;19.40;;;-3.80;99.90;;;;;;5033263;28;20033;-48
2022/12/15 03:50:22;;;;;;;36.28;18.98;;;-3.80;99.90;;;;;;5033582;28;20028;-47
2022/12/15 03:52:53;;;;;;;37.05;19.73;;;-3.80;99.90;;;;;;5032511;28;20493;-48
2022/12/15 03:55:20;;;;;;;30.05;18.40;;;-3.90;99.90;;;;;;5033552;28;20036;-50
2022/12/15 03:57:45;;;;;;;36.67;18.70;;;-3.90;99.90;;;;;;5033194;28;20021;-49
2022/12/15 04:00:13;;;;;;;32.38;18.58;;;-3.90;99.90;;;;;;5033502;28;20056;-48
2022/12/15 04:02:42;;;;;;;38.40;19.38;;;-3.90;99.90;;;;;;5032437;28;20026;-46
2022/12/15 04:05:13;;;;;;;33.55;19.33;;;-3.80;99.90;;;;;;5033238;28;20033;-47
2022/12/15 04:07:39;;;;;;;34.97;19.77;;;-3.70;99.90;;;;;;5032515;28;20569;-51
2022/12/15 04:10:05;;;;;;;34.22;19.67;;;-3.60;99.90;;;;;;5032829;28;20064;-46
2022/12/15 04:12:30;;;;;;;43.15;21.30;;;-3.50;99.90;;;;;;5032677;28;20025;-47
2022/12/15 04:14:56;;;;;;;34.40;18.77;;;-3.40;99.90;;;;;;5032797;28;20029;-45
2022/12/15 04:17:21;;;;;;;35.70;20.10;;;-3.40;99.90;;;;;;5032765;28;20493;-46
2022/12/15 04:22:30;;;;;;;31.05;19.67;;;-3.20;99.90;;;;;;5017143;28;20083;-47
2022/12/15 05:33:23;;;;;;;36.03;20.30;;;-3.80;99.90;;;;;;5011439;28;20406;-55
2022/12/15 05:35:49;;;;;;;39.22;20.23;;;-3.80;99.90;;;;;;5010490;28;20030;-54
2022/12/15 05:38:14;;;;;;;38.08;20.23;;;-3.80;99.90;;;;;;5011783;28;20108;-56
2022/12/15 05:40:40;;;;;;;41.92;20.67;;;-3.80;99.90;;;;;;5011432;28;20040;-55
2022/12/15 05:43:06;;;;;;;34.90;20.67;;;-3.90;99.90;;;;;;5010728;28;20038;-57
2022/12/15 05:45:32;;;;;;;39.83;20.55;;;-3.90;99.90;;;;;;5010291;28;20092;-56
2022/12/15 05:47:57;;;;;;;38.00;20.23;;;-4.10;99.90;;;;;;5010178;28;20053;-52
2022/12/15 05:50:23;;;;;;;39.00;20.70;;;-4.20;99.90;;;;;;4993727;28;20401;-56
2022/12/15 05:52:51;;;;;;;36.63;20.38;;;-4.20;99.90;;;;;;5009778;28;20037;-53
2022/12/15 05:55:17;;;;;;;34.75;19.35;;;-4.30;99.90;;;;;;5010140;28;20153;-53
2022/12/15 05:57:43;;;;;;;38.63;21.05;;;-4.30;99.90;;;;;;5011564;28;20482;-53
2022/12/15 06:00:09;;;;;;;35.80;20.58;;;-4.30;99.90;;;;;;5011147;28;20120;-54
2022/12/15 06:02:35;;;;;;;36.22;19.75;;;-4.30;99.90;;;;;;4993007;28;20120;-55
2022/12/15 06:05:00;;;;;;;34.60;20.70;;;-4.30;99.90;;;;;;4993771;28;20022;-54
2022/12/15 06:07:26;;;;;;;37.47;21.35;;;-4.40;99.90;;;;;;5011449;28;20433;-50
2022/12/15 06:09:52;;;;;;;37.65;21.73;;;-4.40;99.90;;;;;;5009957;28;20113;-54
2022/12/15 06:12:17;;;;;;;40.55;20.77;;;-4.40;99.90;;;;;;5009359;28;20512;-51
2022/12/15 06:14:43;;;;;;;37.85;20.88;;;-4.40;99.90;;;;;;5011164;28;20084;-52
2022/12/15 06:17:08;;;;;;;37.30;19.33;;;-4.40;99.90;;;;;;5011210;28;20026;-53
2022/12/15 06:19:34;;;;;;;41.50;21.27;;;-4.40;99.90;;;;;;5011236;28;20097;-57
2022/12/15 06:21:59;;;;;;;36.35;22.15;;;-4.40;99.90;;;;;;5010536;28;20022;-55
2022/12/15 06:24:25;;;;;;;38.03;21.67;;;-4.40;99.90;;;;;;4993789;28;20018;-53
2022/12/15 06:26:50;;;;;;;41.25;20.58;;;-4.50;99.90;;;;;;4993411;28;20069;-55
2022/12/15 06:29:17;;;;;;;39.85;22.52;;;-4.50;99.90;;;;;;5010907;28;20026;-51
2022/12/15 06:31:43;;;;;;;37.55;21.27;;;-4.50;99.90;;;;;;5012615;28;20026;-54
2022/12/15 06:34:11;;;;;;;40.38;22.38;;;-4.50;99.90;;;;;;5014299;28;20394;-53
2022/12/15 06:36:38;;;;;;;42.13;21.75;;;-4.50;99.90;;;;;;5014781;28;20022;-55
2022/12/15 06:39:07;;;;;;;38.35;20.85;;;-4.60;99.90;;;;;;5014954;28;20022;-53
2022/12/15 06:41:33;;;;;;;45.50;22.50;;;-4.70;99.90;;;;;;5014641;28;20049;-56
2022/12/15 06:43:59;;;;;;;36.92;21.48;;;-4.70;99.90;;;;;;5014010;28;20489;-54
2022/12/15 06:46:26;;;;;;;35.78;20.27;;;-4.70;99.90;;;;;;4997050;28;20122;-55
2022/12/15 06:48:52;;;;;;;46.92;23.35;;;-4.80;99.90;;;;;;5015010;28;20439;-54
2022/12/15 06:51:18;;;;;;;45.70;21.95;;;-4.80;99.90;;;;;;5014536;28;20113;-53
2022/12/15 06:53:52;;;;;;;37.75;20.98;;;-4.90;99.90;;;;;;4996589;28;20053;-55
2022/12/15 06:56:19;;;;;;;40.95;22.08;;;-5.00;99.90;;;;;;4996850;28;20508;-55
2022/12/15 06:58:49;;;;;;;39.75;22.70;;;-5.00;99.90;;;;;;5014511;28;20073;-55
2022/12/15 07:01:15;;;;;;;53.58;25.08;;;-5.00;99.90;;;;;;5014342;28;20084;-53
2022/12/15 07:03:41;;;;;;;49.85;24.23;;;-5.00;99.90;;;;;;5013811;28;20030;-56
2022/12/15 07:06:09;;;;;;;39.65;21.38;;;-5.00;99.90;;;;;;5013257;28;20028;-56
2022/12/15 07:08:35;;;;;;;45.40;23.65;;;-5.00;99.90;;;;;;5014298;28;20022;-57
2022/12/15 07:11:05;;;;;;;47.60;23.50;;;-4.90;99.90;;;;;;5012816;28;20078;-55
2022/12/15 07:13:30;;;;;;;40.95;22.83;;;-4.90;99.90;;;;;;5013551;28;20048;-55
2022/12/15 07:16:05;;;;;;;38.83;22.85;;;-5.00;99.90;;;;;;5014360;28;20101;-55
2022/12/15 07:18:30;;;;;;;47.10;22.23;;;-5.00;99.90;;;;;;5014289;28;20480;-56
2022/12/15 07:21:02;;;;;;;47.33;25.92;;;-5.00;99.90;;;;;;5014138;28;20021;-57
2022/12/15 07:23:28;;;;;;;49.10;23.83;;;-4.90;99.90;;;;;;5013512;28;20394;-56
2022/12/15 07:25:53;;;;;;;45.78;24.42;;;-4.90;99.90;;;;;;5014036;28;20022;-54
2022/12/15 07:28:19;;;;;;;43.15;23.67;;;-4.90;99.90;;;;;;5013975;28;20033;-55
2022/12/15 07:30:44;;;;;;;50.17;24.33;;;-4.80;99.90;;;;;;5014014;28;20413;-53
2022/12/15 07:33:10;;;;;;;47.13;24.02;;;-4.90;99.90;;;;;;5013181;28;20026;-54
2022/12/15 07:35:35;;;;;;;51.85;24.85;;;-4.90;99.90;;;;;;5013892;28;20034;-59
2022/12/15 07:38:05;;;;;;;57.45;29.48;;;-4.90;99.90;;;;;;5012444;28;20491;-55
2022/12/15 07:40:31;;;;;;;49.33;25.13;;;-4.90;99.90;;;;;;5012363;28;20029;-56
2022/12/15 07:42:56;;;;;;;57.78;27.40;;;-4.90;99.90;;;;;;4994512;28;20036;-56
2022/12/15 07:45:22;;;;;;;59.67;29.35;;;-4.90;99.90;;;;;;5013606;28;20516;-57
2022/12/15 07:47:49;;;;;;;57.95;29.20;;;-4.80;99.90;;;;;;5013491;28;20033;-55
2022/12/15 07:50:16;;;;;;;61.05;29.58;;;-4.70;99.90;;;;;;5013599;28;20020;-55
2022/12/15 07:52:42;;;;;;;83.72;32.70;;;-4.70;99.90;;;;;;5012784;28;20022;-57
2022/12/15 07:55:08;;;;;;;59.47;28.25;;;-4.60;99.90;;;;;;5013533;28;20032;-55
2022/12/15 07:57:33;;;;;;;66.90;28.92;;;-4.50;99.90;;;;;;5013306;28;20021;-58
2022/12/15 07:59:59;;;;;;;64.80;31.25;;;-4.40;99.90;;;;;;5013477;28;20045;-56
2022/12/15 08:02:24;;;;;;;57.45;30.13;;;-4.40;99.90;;;;;;5012663;28;20033;-55
2022/12/15 08:04:50;;;;;;;61.72;31.48;;;-4.40;99.90;;;;;;5012027;28;20493;-56
2022/12/15 08:07:16;;;;;;;62.53;31.67;;;-4.30;99.90;;;;;;5013458;28;20076;-55
2022/12/15 08:09:41;;;;;;;57.20;28.33;;;-4.20;99.90;;;;;;5013068;28;20026;-56
2022/12/15 08:12:07;;;;;;;60.80;29.77;;;-4.10;99.90;;;;;;5012460;28;20509;-52
2022/12/15 08:14:33;;;;;;;72.38;32.30;;;-4.00;99.90;;;;;;5013136;28;20118;-55
2022/12/15 08:16:58;;;;;;;56.08;30.42;;;-3.90;99.90;;;;;;5013249;28;20034;-57
2022/12/15 08:19:23;;;;;;;73.78;32.97;;;-3.90;99.90;;;;;;4995467;28;20072;-58
2022/12/15 08:21:49;;;;;;;62.67;31.45;;;-4.00;99.90;;;;;;5012654;28;20113;-56
2022/12/15 08:24:15;;;;;;;56.83;30.95;;;-3.90;99.90;;;;;;5012551;28;20022;-53
2022/12/15 08:26:42;;;;;;;69.32;31.70;;;-3.90;99.90;;;;;;5011600;28;20022;-58
2022/12/15 08:29:11;;;;;;;64.88;30.60;;;-3.90;99.90;;;;;;5012728;28;20060;-55
2022/12/15 08:31:37;;;;;;;58.55;29.73;;;-3.90;99.90;;;;;;5013019;28;20018;-52
2022/12/15 08:34:04;;;;;;;57.70;30.38;;;-3.90;99.90;;;;;;5012120;28;20496;-56
2022/12/15 08:36:30;;;;;;;58.17;31.85;;;-3.90;99.90;;;;;;5012444;28;20108;-57
2022/12/15 08:38:58;;;;;;;63.95;31.70;;;-3.90;99.90;;;;;;5012651;28;20030;-55
2022/12/15 08:41:25;;;;;;;64.60;31.48;;;-3.90;99.90;;;;;;5012564;28;20109;-55
2022/12/15 08:43:52;;;;;;;69.15;33.00;;;-3.90;99.90;;;;;;5011892;28;20026;-53
2022/12/15 08:46:21;;;;;;;76.03;32.35;;;-3.80;99.90;;;;;;5012613;28;20113;-54
2022/12/15 08:48:47;;;;;;;76.18;33.47;;;-3.80;99.90;;;;;;5012465;28;20477;-55
2022/12/15 08:51:13;;;;;;;75.53;34.80;;;-3.80;99.90;;;;;;5012411;28;20025;-55
2022/12/15 08:53:38;;;;;;;64.10;32.80;;;-3.80;99.90;;;;;;5011785;28;20022;-54
2022/12/15 08:56:05;;;;;;;66.75;34.30;;;-3.70;99.90;;;;;;5012434;28;20038;-53
2022/12/15 08:58:31;;;;;;;72.40;35.33;;;-3.60;99.90;;;;;;5013485;28;20026;-55
2022/12/15 09:01:01;;;;;;;65.53;32.72;;;-3.50;99.90;;;;;;5012585;28;20032;-55
2022/12/15 09:03:28;;;;;;;66.50;32.97;;;-3.50;99.90;;;;;;5011143;28;20430;-50
2022/12/15 09:05:53;;;;;;;64.93;33.15;;;-3.60;99.90;;;;;;5012242;28;20110;-49
2022/12/15 09:08:19;;;;;;;63.40;32.65;;;-3.60;99.90;;;;;;5010572;28;20096;-53
2022/12/15 09:10:44;;;;;;;62.00;33.63;;;-3.60;99.90;;;;;;5010709;28;20053;-52
2022/12/15 09:13:10;;;;;;;67.15;33.70;;;-3.50;99.90;;;;;;4992692;28;20064;-51
2022/12/15 09:15:35;;;;;;;60.17;31.83;;;-3.60;99.90;;;;;;5012619;28;20083;-51
2022/12/15 09:18:01;;;;;;;65.50;34.22;;;-3.60;99.90;;;;;;5012100;28;20398;-52
2022/12/15 09:20:26;;;;;;;68.95;33.92;;;-3.60;99.90;;;;;;5011952;28;20025;-48
2022/12/15 09:22:52;;;;;;;72.85;33.20;;;-3.70;99.90;;;;;;5011414;28;20022;-52
2022/12/15 09:25:19;;;;;;;67.68;33.42;;;-3.60;99.90;;;;;;5011867;28;20041;-54
2022/12/15 09:27:45;;;;;;;67.80;35.33;;;-3.60;99.90;;;;;;5012166;28;20018;-50
2022/12/15 09:30:10;;;;;;;70.22;35.50;;;-3.50;99.90;;;;;;5011753;28;20091;-50
2022/12/15 09:32:36;;;;;;;69.05;35.60;;;-3.50;99.90;;;;;;5011787;28;20030;-52
2022/12/15 09:35:02;;;;;;;72.00;34.88;;;-3.40;99.90;;;;;;5011939;28;20025;-53
2022/12/15 09:37:30;;;;;;;72.00;33.75;;;-3.30;99.90;;;;;;5011665;28;20544;-50
2022/12/15 09:39:55;;;;;;;76.68;36.92;;;-3.20;99.90;;;;;;5011877;28;20444;-51
2022/12/15 09:42:27;;;;;;;74.05;35.38;;;-3.20;99.90;;;;;;5011124;28;20025;-51
2022/12/15 09:45:00;;;;;;;68.90;35.40;;;-3.20;99.90;;;;;;5011880;28;20072;-49
2022/12/15 09:47:49;;;;;;;76.88;37.95;;;-3.30;99.90;;;;;;5012349;28;20026;-51
2022/12/15 09:50:18;;;;;;;64.15;34.03;;;-3.20;99.90;;;;;;5011864;28;20451;-54
2022/12/15 09:52:47;;;;;;;68.53;35.00;;;-3.10;99.90;;;;;;5011070;28;20026;-52
2022/12/15 09:55:19;;;;;;;64.63;31.90;;;-3.10;99.90;;;;;;5011788;28;20076;-49
2022/12/15 09:57:54;;;;;;;65.80;34.85;;;-3.10;99.90;;;;;;4994155;28;20571;-50
2022/12/15 10:00:29;;;;;;;69.22;36.63;;;-3.00;99.90;;;;;;5010343;28;20033;-51
2022/12/15 10:03:32;;;;;;;74.25;36.42;;;-3.00;99.90;;;;;;5011052;28;20033;-51
2022/12/15 10:06:17;;;;;;;71.60;36.17;;;-2.90;99.90;;;;;;5011688;28;20429;-51
2022/12/15 10:08:55;;;;;;;59.58;31.30;;;-2.90;99.90;;;;;;5015578;28;20018;-49
2022/12/15 10:11:23;;;;;;;58.13;31.60;;;-2.90;99.90;;;;;;5015554;28;20030;-51
2022/12/15 10:13:58;;;;;;;57.38;31.00;;;-2.80;99.90;;;;;;4997084;28;20026;-53
2022/12/15 10:16:30;;;;;;;67.35;32.65;;;-2.70;99.90;;;;;;5013622;28;20034;-50
2022/12/15 10:19:19;;;;;;;68.72;33.38;;;-2.70;99.90;;;;;;4997605;28;20405;-52
2022/12/15 10:21:46;;;;;;;58.55;31.30;;;-2.70;99.90;;;;;;5015045;28;20121;-44
2022/12/15 10:24:16;;;;;;;60.53;31.58;;;-2.90;99.90;;;;;;5013523;28;20509;-52
2022/12/15 10:26:55;;;;;;;63.75;30.63;;;-3.00;99.90;;;;;;5015351;28;20361;-51
2022/12/15 10:29:44;;;;;;;60.60;32.05;;;-3.00;99.90;;;;;;5015100;28;20034;-53
2022/12/15 10:32:28;;;;;;;64.70;34.88;;;-3.10;99.90;;;;;;5014439;28;20481;-51
2022/12/15 10:34:54;;;;;;;60.50;31.73;;;-3.10;99.90;;;;;;5015143;28;20049;-51
2022/12/15 10:37:20;;;;;;;59.60;32.75;;;-3.10;99.90;;;;;;5014959;28;20237;-49
2022/12/15 10:39:48;;;;;;;59.15;31.40;;;-3.00;99.90;;;;;;5015022;28;20164;-50
2022/12/15 10:42:15;;;;;;;54.05;29.45;;;-3.00;99.90;;;;;;5014093;28;20030;-48
2022/12/15 10:44:44;;;;;;;58.67;30.35;;;-3.00;99.90;;;;;;5014590;28;20018;-56
2022/12/15 10:47:21;;;;;;;60.38;31.10;;;-2.90;99.90;;;;;;5011134;28;20367;-51
2022/12/15 10:49:48;;;;;;;61.00;30.20;;;-3.00;99.90;;;;;;5014017;28;20022;-47
2022/12/15 10:52:33;;;;;;;58.53;32.08;;;-3.00;99.90;;;;;;5013582;28;20061;-51
2022/12/15 10:54:59;;;;;;;59.67;30.80;;;-3.00;99.90;;;;;;5013044;28;20068;-46
2022/12/15 10:57:28;;;;;;;62.00;32.53;;;-3.00;99.90;;;;;;5014059;28;20465;-46
2022/12/15 10:59:58;;;;;;;58.80;33.03;;;-2.90;99.90;;;;;;5005070;28;20046;-54
2022/12/15 11:02:26;;;;;;;59.60;29.70;;;-2.80;99.90;;;;;;5012312;28;20034;-51
2022/12/15 11:05:02;;;;;;;62.08;33.10;;;-2.80;99.90;;;;;;5014151;28;20068;-51
2022/12/15 11:07:35;;;;;;;56.85;31.58;;;-2.80;99.90;;;;;;5013793;28;20022;-49
2022/12/15 11:10:14;;;;;;;56.25;29.95;;;-2.70;99.90;;;;;;5013000;28;20044;-50
2022/12/15 11:12:51;;;;;;;52.72;27.67;;;-2.80;99.90;;;;;;4993833;28;20112;-47
2022/12/15 11:15:22;;;;;;;54.58;27.83;;;-2.80;99.90;;;;;;5012575;28;20026;-53
2022/12/15 11:17:58;;;;;;;56.95;29.45;;;-2.70;99.90;;;;;;4995054;28;20041;-55
2022/12/15 11:20:37;;;;;;;60.13;31.13;;;-2.70;99.90;;;;;;5012435;28;20030;-52
2022/12/15 11:23:30;;;;;;;54.85;29.45;;;-2.70;99.90;;;;;;5011581;28;20022;-48
2022/12/15 11:26:02;;;;;;;49.42;28.15;;;-2.70;99.90;;;;;;5005572;28;20022;-46
2022/12/15 11:28:37;;;;;;;57.17;30.25;;;-2.70;99.90;;;;;;4989780;28;20025;-54
2022/12/15 11:31:16;;;;;;;57.03;31.85;;;-2.70;99.90;;;;;;5053541;22;20037;-55
2022/12/15 11:33:41;;;;;;;61.42;30.63;;;-2.70;99.90;;;;;;5032069;28;20412;-56
2022/12/15 11:36:19;;;;;;;64.38;33.17;;;-2.60;99.90;;;;;;5052062;28;20028;-45
2022/12/15 11:38:59;;;;;;;62.95;33.17;;;-2.60;99.90;;;;;;5049466;28;20107;-49
2022/12/15 11:41:39;;;;;;;58.78;32.92;;;-2.50;99.90;;;;;;5052324;28;20021;-50
2022/12/15 11:44:26;;;;;;;60.67;30.13;;;-2.40;99.90;;;;;;5047559;28;20077;-48
2022/12/15 11:47:01;;;;;;;62.40;33.00;;;-2.40;99.90;;;;;;5051294;28;20039;-50
2022/12/15 11:49:51;;;;;;;55.40;29.65;;;-2.40;99.90;;;;;;5050098;28;20017;-50
2022/12/15 11:52:50;;;;;;;57.03;29.88;;;-2.40;99.90;;;;;;5051278;28;20045;-48
2022/12/15 11:55:48;;;;;;;61.33;29.35;;;-2.40;99.90;;;;;;5050550;28;20055;-50
2022/12/15 11:58:43;;;;;;;55.35;30.80;;;-2.40;99.90;;;;;;5049624;28;20025;-51
2022/12/15 12:01:29;;;;;;;60.60;32.55;;;-2.30;99.90;;;;;;5049928;28;20037;-52
2022/12/15 12:04:03;;;;;;;;;;;-2.30;99.90;;;;;;5050778;28;20032;-53
2022/12/15 12:06:49;;;;;;;56.10;31.40;;;-2.30;99.90;;;;;;5049217;28;19909;-55
2022/12/15 12:09:28;;;;;;;57.22;31.60;;;-2.30;99.90;;;;;;5048024;28;20389;-47
2022/12/15 12:12:28;;;;;;;52.78;29.38;;;-2.30;99.90;;;;;;5030182;28;20032;-46
2022/12/15 12:15:11;;;;;;;51.20;28.02;;;-2.40;99.90;;;;;;5050620;28;20040;-50
2022/12/15 12:17:44;;;;;;;53.97;29.70;;;-2.50;99.90;;;;;;5045922;28;20052;-48
2022/12/15 12:20:19;;;;;;;51.30;28.90;;;-2.40;99.90;;;;;;5048048;28;20033;-42
2022/12/15 12:23:01;;;;;;;57.50;31.40;;;-2.30;99.90;;;;;;5046840;28;20029;-54
2022/12/15 12:25:30;;;;;;;51.45;27.77;;;-2.30;99.90;;;;;;5049749;28;20024;-51
2022/12/15 12:28:04;;;;;;;55.97;28.08;;;-2.20;99.90;;;;;;5048391;28;20017;-52
2022/12/15 12:30:40;;;;;;;54.53;29.02;;;-2.30;99.90;;;;;;5028738;28;20030;-56
2022/12/15 12:33:18;;;;;;;60.55;31.30;;;-2.40;99.90;;;;;;5032722;28;20036;-49
2022/12/15 12:35:50;;;;;;;58.50;29.02;;;-2.40;99.90;;;;;;5050112;28;20502;-51
2022/12/15 12:38:23;;;;;;;52.60;28.10;;;-2.40;99.90;;;;;;5043320;28;20104;-46
2022/12/15 12:41:03;;;;;;;59.50;32.00;;;-2.40;99.90;;;;;;5028775;28;20464;-50
2022/12/15 12:43:33;;;;;;;63.10;31.40;;;-2.40;99.90;;;;;;5047053;28;20438;-48
2022/12/15 12:46:27;;;;;;;59.38;29.73;;;-2.40;99.90;;;;;;5031778;28;20048;-51
2022/12/15 12:49:01;;;;;;;55.97;27.38;;;-2.30;99.90;;;;;;5044743;28;20037;-48
2022/12/15 12:51:30;;;;;;;60.83;28.30;;;-2.30;99.90;;;;;;5028517;28;20083;-48
2022/12/15 12:53:57;;;;;;;56.90;28.48;;;-2.30;99.90;;;;;;5031076;28;20129;-47
2022/12/15 12:56:35;;;;;;;54.85;29.38;;;-2.30;99.90;;;;;;5050321;28;20029;-47
2022/12/15 12:59:06;;;;;;;60.58;31.35;;;-2.20;99.90;;;;;;5049370;28;20051;-45
2022/12/15 13:01:34;;;;;;;58.97;30.88;;;-2.10;99.90;;;;;;5049936;28;20035;-51
2022/12/15 13:04:35;;;;;;;55.85;28.45;;;-2.00;99.90;;;;;;5048970;28;20516;-55
2022/12/15 13:07:04;;;;;;;64.60;29.50;;;-2.10;99.90;;;;;;5045859;28;20029;-51
2022/12/15 13:09:38;;;;;;;57.90;28.45;;;-2.10;99.90;;;;;;5029684;28;20036;-54
2022/12/15 13:12:25;;;;;;;52.63;29.73;;;-2.10;99.90;;;;;;5028032;28;20156;-56
2022/12/15 13:14:53;;;;;;;58.38;29.75;;;-2.00;99.90;;;;;;5049614;28;20264;-52
2022/12/15 13:17:37;;;;;;;58.38;29.30;;;-2.10;99.90;;;;;;5048794;28;20059;-50
2022/12/15 13:20:34;;;;;;;57.67;28.23;;;-2.20;99.90;;;;;;5028645;28;20537;-49
2022/12/15 13:23:18;;;;;;;53.70;26.08;;;-2.20;99.90;;;;;;5031297;28;20082;-54
2022/12/15 13:25:59;;;;;;;55.92;27.70;;;-2.00;99.90;;;;;;5049729;28;20151;-49
2022/12/15 13:28:41;;;;;;;62.38;30.13;;;-2.10;99.90;;;;;;5044924;28;20029;-49
2022/12/15 13:31:16;;;;;;;61.30;29.83;;;-2.30;99.90;;;;;;5048726;28;20060;-50
2022/12/15 13:33:51;;;;;;;59.30;29.67;;;-2.30;99.90;;;;;;5049158;28;20568;-50
2022/12/15 13:36:35;;;;;;;59.47;29.57;;;-2.40;99.90;;;;;;5049172;28;20049;-50
2022/12/15 13:39:03;;;;;;;64.70;30.88;;;-2.50;99.90;;;;;;5046995;28;20044;-44
2022/12/15 13:41:29;;;;;;;67.75;32.20;;;-2.50;99.90;;;;;;5051339;28;20036;-44
2022/12/15 13:43:56;;;;;;;62.05;31.38;;;-2.50;99.90;;;;;;5050707;28;20026;-45
2022/12/15 13:46:30;;;;;;;65.05;28.63;;;-2.50;99.90;;;;;;5051484;28;20063;-45
2022/12/15 13:49:12;;;;;;;63.10;30.20;;;-2.50;99.90;;;;;;5051561;28;20385;-45
2022/12/15 13:51:43;;;;;;;58.08;29.13;;;-2.50;99.90;;;;;;5051880;28;20107;-44
2022/12/15 13:54:22;;;;;;;60.20;28.20;;;-2.60;99.90;;;;;;5051129;28;20060;-46
2022/12/15 13:57:10;;;;;;;58.95;28.98;;;-2.70;99.90;;;;;;5033196;28;20032;-46
2022/12/15 13:59:38;;;;;;;58.78;28.85;;;-2.70;99.90;;;;;;5051171;28;20054;-44
2022/12/15 14:02:26;;;;;;;64.68;30.20;;;-2.80;99.90;;;;;;5050293;28;20033;-45
2022/12/15 14:05:10;;;;;;;65.63;31.17;;;-2.80;99.90;;;;;;5050964;28;20036;-44
2022/12/15 14:07:35;;;;;;;67.55;29.17;;;-2.80;99.90;;;;;;5033368;28;20123;-46
2022/12/15 14:10:05;;;;;;;60.45;28.98;;;-2.80;99.90;;;;;;5051704;28;20064;-44
2022/12/15 14:12:31;;;;;;;60.30;28.15;;;-2.80;99.90;;;;;;5050554;28;20055;-43
2022/12/15 14:14:56;;;;;;;66.38;29.98;;;-2.90;99.90;;;;;;5051178;28;20029;-44
2022/12/15 14:17:22;;;;;;;69.45;31.05;;;-2.80;99.90;;;;;;5050989;28;20076;-44
2022/12/15 14:19:49;;;;;;;63.42;27.77;;;-2.80;99.90;;;;;;5050977;28;20025;-45
2022/12/15 14:22:26;;;;;;;68.15;30.83;;;-2.80;99.90;;;;;;5050232;28;20036;-45
2022/12/15 14:25:17;;;;;;;69.90;30.55;;;-2.80;99.90;;;;;;5051108;28;20027;-44
2022/12/15 14:27:43;;;;;;;62.75;29.02;;;-2.70;99.90;;;;;;5050196;28;20037;-44
2022/12/15 14:30:17;;;;;;;62.85;28.92;;;-2.70;99.90;;;;;;5051148;28;20035;-46
2022/12/15 14:32:45;;;;;;;61.53;28.20;;;-2.70;99.90;;;;;;5050270;28;20020;-45
2022/12/15 14:35:39;;;;;;;65.38;29.83;;;-2.80;99.90;;;;;;5051041;28;20703;-41
2022/12/15 14:38:07;;;;;;;67.57;30.35;;;-2.90;99.90;;;;;;5013756;28;20492;-45
2022/12/15 14:40:36;;;;;;;72.95;30.70;;;-3.00;99.90;;;;;;5016517;28;20025;-42
2022/12/15 14:43:03;;;;;;;62.08;28.77;;;-3.00;99.90;;;;;;5049987;28;20029;-45
2022/12/15 14:45:31;;;;;;;67.32;27.98;;;-3.10;99.90;;;;;;5050852;28;20025;-43
2022/12/15 14:48:07;;;;;;;68.50;29.00;;;-3.10;99.90;;;;;;5032857;28;20104;-46
2022/12/15 14:50:33;;;;;;;59.65;28.67;;;-3.00;99.90;;;;;;5032804;28;20377;-44
2022/12/15 14:53:05;;;;;;;53.10;24.90;;;-3.10;99.90;;;;;;5052047;28;20090;-44
2022/12/15 14:55:33;;;;;;;62.38;25.75;;;-3.10;99.90;;;;;;5055090;28;20507;-45
2022/12/15 14:57:58;;;;;;;62.33;27.42;;;-3.10;99.90;;;;;;5054955;28;20110;-45
2022/12/15 15:00:47;;;;;;;55.58;25.13;;;-3.20;99.90;;;;;;5054544;28;20512;-44
2022/12/15 15:03:20;;;;;;;66.07;28.13;;;-3.20;99.90;;;;;;5053568;28;20440;-45
2022/12/15 15:06:09;;;;;;;65.88;27.75;;;-3.20;99.90;;;;;;5053995;28;20021;-44
2022/12/15 15:08:46;;;;;;;60.38;27.25;;;-3.30;99.90;;;;;;5041193;28;20044;-44
2022/12/15 15:11:20;;;;;;;74.80;29.73;;;-3.30;99.90;;;;;;5054108;28;20040;-45
2022/12/15 15:13:46;;;;;;;68.38;31.17;;;-3.30;99.90;;;;;;5054174;28;20370;-44